sensor_id;sensor_type;location;lat;lon;timestamp;P1;durP1;ratioP1;P2;durP2;ratioP2
30593;SDS011;33199;47.590;8.300;2023-04-24T00:00:07;0.47;;;0.30;;
30593;SDS011;33199;47.590;8.300;2023-04-24T00:02:37;0.20;;;0.20;;
30593;SDS011;33199;47.590;8.300;2023-04-24T00:05:07;0.20;;;0.20;;
30593;SDS011;33199;47.590;8.300;2023-04-24T00:07:33;0.50;;;0.30;;
30593;SDS011;33199;47.590;8.300;2023-04-24T00:09:59;0.32;;;0.32;;
30593;SDS011;33199;47.590;8.300;2023-04-24T00:12:25;0.30;;;0.30;;
30593;SDS011;33199;47.590;8.300;2023-04-24T00:14:51;0.22;;;0.22;;
30593;SDS011;33199;47.590;8.300;2023-04-24T00:17:17;0.22;;;0.22;;
30593;SDS011;33199;47.590;8.300;2023-04-24T00:22:12;1.75;;;0.20;;
30593;SDS011;33199;47.590;8.300;2023-04-24T00:24:38;2.47;;;0.40;;
30593;SDS011;33199;47.590;8.300;2023-04-24T00:27:04;0.22;;;0.22;;
30593;SDS011;33199;47.590;8.300;2023-04-24T00:29:30;1.05;;;0.30;;
30593;SDS011;33199;47.590;8.300;2023-04-24T00:31:56;0.30;;;0.30;;
30593;SDS011;33199;47.590;8.300;2023-04-24T00:34:21;0.20;;;0.20;;
30593;SDS011;33199;47.590;8.300;2023-04-24T00:36:47;0.20;;;0.20;;
30593;SDS011;33199;47.590;8.300;2023-04-24T00:39:15;0.30;;;0.30;;
30593;SDS011;33199;47.590;8.300;2023-04-24T00:41:41;1.00;;;0.35;;
30593;SDS011;33199;47.590;8.300;2023-04-24T00:44:06;0.30;;;0.20;;
30593;SDS011;33199;47.590;8.300;2023-04-24T00:46:32;0.40;;;0.40;;
30593;SDS011;33199;47.590;8.300;2023-04-24T00:48:58;0.30;;;0.30;;
30593;SDS011;33199;47.590;8.300;2023-04-24T00:51:24;0.40;;;0.40;;
30593;SDS011;33199;47.590;8.300;2023-04-24T00:53:50;0.43;;;0.43;;
30593;SDS011;33199;47.590;8.300;2023-04-24T00:56:16;0.30;;;0.30;;
30593;SDS011;33199;47.590;8.300;2023-04-24T00:58:42;0.45;;;0.40;;
30593;SDS011;33199;47.590;8.300;2023-04-24T01:01:08;0.47;;;0.47;;
30593;SDS011;33199;47.590;8.300;2023-04-24T01:03:36;0.40;;;0.20;;
30593;SDS011;33199;47.590;8.300;2023-04-24T01:06:02;0.28;;;0.28;;
30593;SDS011;33199;47.590;8.300;2023-04-24T01:08:29;0.20;;;0.20;;
30593;SDS011;33199;47.590;8.300;2023-04-24T01:10:55;0.65;;;0.32;;
30593;SDS011;33199;47.590;8.300;2023-04-24T01:13:22;0.43;;;0.30;;
30593;SDS011;33199;47.590;8.300;2023-04-24T01:15:47;0.20;;;0.20;;
30593;SDS011;33199;47.590;8.300;2023-04-24T01:18:13;0.30;;;0.30;;
30593;SDS011;33199;47.590;8.300;2023-04-24T01:20:40;0.20;;;0.20;;
30593;SDS011;33199;47.590;8.300;2023-04-24T01:23:07;0.30;;;0.30;;
30593;SDS011;33199;47.590;8.300;2023-04-24T01:25:33;0.30;;;0.30;;
30593;SDS011;33199;47.590;8.300;2023-04-24T01:27:59;0.47;;;0.35;;
30593;SDS011;33199;47.590;8.300;2023-04-24T01:30:25;0.20;;;0.20;;
30593;SDS011;33199;47.590;8.300;2023-04-24T01:32:52;0.30;;;0.30;;
30593;SDS011;33199;47.590;8.300;2023-04-24T01:35:18;0.30;;;0.30;;
30593;SDS011;33199;47.590;8.300;2023-04-24T01:37:46;0.35;;;0.35;;
30593;SDS011;33199;47.590;8.300;2023-04-24T01:40:11;0.20;;;0.20;;
30593;SDS011;33199;47.590;8.300;2023-04-24T01:42:37;0.43;;;0.28;;
30593;SDS011;33199;47.590;8.300;2023-04-24T01:45:03;0.40;;;0.30;;
30593;SDS011;33199;47.590;8.300;2023-04-24T01:47:30;0.30;;;0.30;;
30593;SDS011;33199;47.590;8.300;2023-04-24T01:49:57;0.35;;;0.30;;
30593;SDS011;33199;47.590;8.300;2023-04-24T01:52:23;0.30;;;0.30;;
30593;SDS011;33199;47.590;8.300;2023-04-24T01:54:48;0.30;;;0.30;;
30593;SDS011;33199;47.590;8.300;2023-04-24T01:57:14;0.20;;;0.20;;
30593;SDS011;33199;47.590;8.300;2023-04-24T01:59:41;0.20;;;0.20;;
30593;SDS011;33199;47.590;8.300;2023-04-24T02:02:08;0.28;;;0.28;;
30593;SDS011;33199;47.590;8.300;2023-04-24T02:04:34;0.20;;;0.20;;
30593;SDS011;33199;47.590;8.300;2023-04-24T02:07:00;0.40;;;0.30;;
30593;SDS011;33199;47.590;8.300;2023-04-24T02:09:25;0.20;;;0.20;;
30593;SDS011;33199;47.590;8.300;2023-04-24T02:11:52;0.30;;;0.30;;
30593;SDS011;33199;47.590;8.300;2023-04-24T02:14:18;0.28;;;0.28;;
30593;SDS011;33199;47.590;8.300;2023-04-24T02:16:45;0.30;;;0.30;;
30593;SDS011;33199;47.590;8.300;2023-04-24T02:19:10;0.50;;;0.40;;
30593;SDS011;33199;47.590;8.300;2023-04-24T02:21:36;0.20;;;0.20;;
30593;SDS011;33199;47.590;8.300;2023-04-24T02:24:01;0.30;;;0.30;;
30593;SDS011;33199;47.590;8.300;2023-04-24T02:26:27;0.40;;;0.40;;
30593;SDS011;33199;47.590;8.300;2023-04-24T02:28:53;0.20;;;0.20;;
30593;SDS011;33199;47.590;8.300;2023-04-24T02:31:20;0.30;;;0.30;;
30593;SDS011;33199;47.590;8.300;2023-04-24T02:33:46;0.30;;;0.30;;
30593;SDS011;33199;47.590;8.300;2023-04-24T02:36:11;0.20;;;0.20;;
30593;SDS011;33199;47.590;8.300;2023-04-24T02:38:38;0.80;;;0.30;;
30593;SDS011;33199;47.590;8.300;2023-04-24T02:41:03;0.20;;;0.20;;
30593;SDS011;33199;47.590;8.300;2023-04-24T02:43:31;0.30;;;0.30;;
30593;SDS011;33199;47.590;8.300;2023-04-24T02:45:57;0.10;;;0.10;;
30593;SDS011;33199;47.590;8.300;2023-04-24T02:48:24;0.30;;;0.30;;
30593;SDS011;33199;47.590;8.300;2023-04-24T02:50:50;0.20;;;0.20;;
30593;SDS011;33199;47.590;8.300;2023-04-24T02:53:16;0.20;;;0.20;;
30593;SDS011;33199;47.590;8.300;2023-04-24T02:55:42;0.30;;;0.30;;
30593;SDS011;33199;47.590;8.300;2023-04-24T02:58:08;0.30;;;0.30;;
30593;SDS011;33199;47.590;8.300;2023-04-24T03:00:33;0.30;;;0.30;;
30593;SDS011;33199;47.590;8.300;2023-04-24T03:02:59;0.28;;;0.28;;
30593;SDS011;33199;47.590;8.300;2023-04-24T03:05:25;0.47;;;0.35;;
30593;SDS011;33199;47.590;8.300;2023-04-24T03:07:52;0.25;;;0.25;;
30593;SDS011;33199;47.590;8.300;2023-04-24T03:10:17;0.20;;;0.20;;
30593;SDS011;33199;47.590;8.300;2023-04-24T03:12:43;0.20;;;0.20;;
30593;SDS011;33199;47.590;8.300;2023-04-24T03:15:09;0.20;;;0.20;;
30593;SDS011;33199;47.590;8.300;2023-04-24T03:17:35;0.28;;;0.28;;
30593;SDS011;33199;47.590;8.300;2023-04-24T03:20:01;0.20;;;0.20;;
30593;SDS011;33199;47.590;8.300;2023-04-24T03:22:27;3.15;;;0.35;;
30593;SDS011;33199;47.590;8.300;2023-04-24T03:24:53;0.20;;;0.20;;
30593;SDS011;33199;47.590;8.300;2023-04-24T03:27:19;0.30;;;0.30;;
30593;SDS011;33199;47.590;8.300;2023-04-24T03:29:45;2.33;;;0.15;;
30593;SDS011;33199;47.590;8.300;2023-04-24T03:32:11;0.85;;;0.32;;
30593;SDS011;33199;47.590;8.300;2023-04-24T03:34:37;0.40;;;0.40;;
30593;SDS011;33199;47.590;8.300;2023-04-24T03:37:02;0.30;;;0.30;;
30593;SDS011;33199;47.590;8.300;2023-04-24T03:39:28;0.30;;;0.30;;
30593;SDS011;33199;47.590;8.300;2023-04-24T03:41:53;0.35;;;0.28;;
30593;SDS011;33199;47.590;8.300;2023-04-24T03:44:19;0.30;;;0.30;;
30593;SDS011;33199;47.590;8.300;2023-04-24T03:46:46;0.20;;;0.20;;
30593;SDS011;33199;47.590;8.300;2023-04-24T03:49:13;0.20;;;0.20;;
30593;SDS011;33199;47.590;8.300;2023-04-24T03:51:39;0.32;;;0.30;;
30593;SDS011;33199;47.590;8.300;2023-04-24T03:54:04;0.28;;;0.28;;
30593;SDS011;33199;47.590;8.300;2023-04-24T03:56:30;0.20;;;0.20;;
30593;SDS011;33199;47.590;8.300;2023-04-24T03:58:55;1.55;;;0.30;;
30593;SDS011;33199;47.590;8.300;2023-04-24T04:01:21;0.20;;;0.20;;
30593;SDS011;33199;47.590;8.300;2023-04-24T04:03:48;0.30;;;0.30;;
30593;SDS011;33199;47.590;8.300;2023-04-24T04:06:13;0.20;;;0.20;;
30593;SDS011;33199;47.590;8.300;2023-04-24T04:08:39;0.20;;;0.20;;
30593;SDS011;33199;47.590;8.300;2023-04-24T04:11:05;0.40;;;0.30;;
30593;SDS011;33199;47.590;8.300;2023-04-24T04:13:30;0.20;;;0.20;;
30593;SDS011;33199;47.590;8.300;2023-04-24T04:15:56;0.20;;;0.20;;
30593;SDS011;33199;47.590;8.300;2023-04-24T04:18:22;0.28;;;0.28;;
30593;SDS011;33199;47.590;8.300;2023-04-24T04:20:47;0.20;;;0.20;;
30593;SDS011;33199;47.590;8.300;2023-04-24T04:23:13;0.30;;;0.30;;
30593;SDS011;33199;47.590;8.300;2023-04-24T04:25:39;0.22;;;0.22;;
30593;SDS011;33199;47.590;8.300;2023-04-24T04:28:04;0.20;;;0.20;;
30593;SDS011;33199;47.590;8.300;2023-04-24T04:30:30;0.20;;;0.20;;
30593;SDS011;33199;47.590;8.300;2023-04-24T04:32:57;0.25;;;0.25;;
30593;SDS011;33199;47.590;8.300;2023-04-24T04:35:24;0.20;;;0.20;;
30593;SDS011;33199;47.590;8.300;2023-04-24T04:37:50;0.30;;;0.30;;
30593;SDS011;33199;47.590;8.300;2023-04-24T04:40:16;0.17;;;0.17;;
30593;SDS011;33199;47.590;8.300;2023-04-24T04:42:42;0.25;;;0.25;;
30593;SDS011;33199;47.590;8.300;2023-04-24T04:47:36;0.20;;;0.20;;
30593;SDS011;33199;47.590;8.300;2023-04-24T04:50:02;0.10;;;0.10;;
30593;SDS011;33199;47.590;8.300;2023-04-24T04:52:31;0.20;;;0.20;;
30593;SDS011;33199;47.590;8.300;2023-04-24T04:57:22;0.85;;;0.30;;
30593;SDS011;33199;47.590;8.300;2023-04-24T04:59:48;1.05;;;0.40;;
30593;SDS011;33199;47.590;8.300;2023-04-24T05:02:13;0.20;;;0.20;;
30593;SDS011;33199;47.590;8.300;2023-04-24T05:04:39;3.45;;;0.35;;
30593;SDS011;33199;47.590;8.300;2023-04-24T05:07:05;1.52;;;0.40;;
30593;SDS011;33199;47.590;8.300;2023-04-24T05:09:31;1.55;;;0.40;;
30593;SDS011;33199;47.590;8.300;2023-04-24T05:11:57;0.30;;;0.30;;
30593;SDS011;33199;47.590;8.300;2023-04-24T05:14:22;0.57;;;0.35;;
30593;SDS011;33199;47.590;8.300;2023-04-24T05:16:48;0.30;;;0.30;;
30593;SDS011;33199;47.590;8.300;2023-04-24T05:19:13;1.35;;;0.28;;
30593;SDS011;33199;47.590;8.300;2023-04-24T05:21:40;0.30;;;0.30;;
30593;SDS011;33199;47.590;8.300;2023-04-24T05:24:06;1.08;;;0.30;;
30593;SDS011;33199;47.590;8.300;2023-04-24T05:26:32;0.30;;;0.20;;
30593;SDS011;33199;47.590;8.300;2023-04-24T05:28:57;0.47;;;0.30;;
30593;SDS011;33199;47.590;8.300;2023-04-24T05:31:23;0.30;;;0.20;;
30593;SDS011;33199;47.590;8.300;2023-04-24T05:33:48;0.52;;;0.20;;
30593;SDS011;33199;47.590;8.300;2023-04-24T05:36:14;0.50;;;0.30;;
30593;SDS011;33199;47.590;8.300;2023-04-24T05:38:40;0.28;;;0.28;;
30593;SDS011;33199;47.590;8.300;2023-04-24T05:41:05;0.85;;;0.40;;
30593;SDS011;33199;47.590;8.300;2023-04-24T05:43:31;0.60;;;0.30;;
30593;SDS011;33199;47.590;8.300;2023-04-24T05:45:57;0.22;;;0.22;;
30593;SDS011;33199;47.590;8.300;2023-04-24T05:48:22;0.20;;;0.20;;
30593;SDS011;33199;47.590;8.300;2023-04-24T05:50:48;0.35;;;0.32;;
30593;SDS011;33199;47.590;8.300;2023-04-24T05:53:14;0.30;;;0.28;;
30593;SDS011;33199;47.590;8.300;2023-04-24T05:55:39;0.60;;;0.30;;
30593;SDS011;33199;47.590;8.300;2023-04-24T05:58:05;0.43;;;0.30;;
30593;SDS011;33199;47.590;8.300;2023-04-24T06:00:31;0.70;;;0.40;;
30593;SDS011;33199;47.590;8.300;2023-04-24T06:02:57;0.22;;;0.22;;
30593;SDS011;33199;47.590;8.300;2023-04-24T06:05:23;0.20;;;0.20;;
30593;SDS011;33199;47.590;8.300;2023-04-24T06:07:50;0.47;;;0.40;;
30593;SDS011;33199;47.590;8.300;2023-04-24T06:10:16;0.50;;;0.50;;
30593;SDS011;33199;47.590;8.300;2023-04-24T06:12:41;0.45;;;0.30;;
30593;SDS011;33199;47.590;8.300;2023-04-24T06:15:07;0.20;;;0.20;;
30593;SDS011;33199;47.590;8.300;2023-04-24T06:17:33;1.27;;;0.30;;
30593;SDS011;33199;47.590;8.300;2023-04-24T06:19:59;0.30;;;0.30;;
30593;SDS011;33199;47.590;8.300;2023-04-24T06:22:25;0.30;;;0.30;;
30593;SDS011;33199;47.590;8.300;2023-04-24T06:24:50;0.52;;;0.30;;
30593;SDS011;33199;47.590;8.300;2023-04-24T06:27:16;2.20;;;0.30;;
30593;SDS011;33199;47.590;8.300;2023-04-24T06:29:41;0.30;;;0.30;;
30593;SDS011;33199;47.590;8.300;2023-04-24T06:32:07;0.28;;;0.28;;
30593;SDS011;33199;47.590;8.300;2023-04-24T06:34:32;0.22;;;0.20;;
30593;SDS011;33199;47.590;8.300;2023-04-24T06:36:59;0.55;;;0.40;;
30593;SDS011;33199;47.590;8.300;2023-04-24T06:39:25;0.30;;;0.30;;
30593;SDS011;33199;47.590;8.300;2023-04-24T06:41:50;0.38;;;0.38;;
30593;SDS011;33199;47.590;8.300;2023-04-24T06:44:16;1.15;;;0.68;;
30593;SDS011;33199;47.590;8.300;2023-04-24T06:46:42;5.47;;;1.00;;
30593;SDS011;33199;47.590;8.300;2023-04-24T06:49:07;2.95;;;0.90;;
30593;SDS011;33199;47.590;8.300;2023-04-24T06:51:33;2.55;;;0.90;;
30593;SDS011;33199;47.590;8.300;2023-04-24T06:53:59;3.72;;;1.30;;
30593;SDS011;33199;47.590;8.300;2023-04-24T06:56:25;0.90;;;0.90;;
30593;SDS011;33199;47.590;8.300;2023-04-24T06:58:51;2.22;;;0.80;;
30593;SDS011;33199;47.590;8.300;2023-04-24T07:01:16;2.55;;;0.98;;
30593;SDS011;33199;47.590;8.300;2023-04-24T07:03:42;2.78;;;0.98;;
30593;SDS011;33199;47.590;8.300;2023-04-24T07:06:08;0.88;;;0.60;;
30593;SDS011;33199;47.590;8.300;2023-04-24T07:08:36;1.70;;;1.00;;
30593;SDS011;33199;47.590;8.300;2023-04-24T07:11:02;1.35;;;0.80;;
30593;SDS011;33199;47.590;8.300;2023-04-24T07:13:27;0.77;;;0.75;;
30593;SDS011;33199;47.590;8.300;2023-04-24T07:15:53;1.13;;;1.00;;
30593;SDS011;33199;47.590;8.300;2023-04-24T07:18:21;3.83;;;1.00;;
30593;SDS011;33199;47.590;8.300;2023-04-24T07:20:46;2.25;;;0.80;;
30593;SDS011;33199;47.590;8.300;2023-04-24T07:23:12;1.40;;;0.80;;
30593;SDS011;33199;47.590;8.300;2023-04-24T07:25:38;1.48;;;0.80;;
30593;SDS011;33199;47.590;8.300;2023-04-24T07:28:04;0.65;;;0.65;;
30593;SDS011;33199;47.590;8.300;2023-04-24T07:30:30;2.88;;;0.85;;
30593;SDS011;33199;47.590;8.300;2023-04-24T07:32:57;0.60;;;0.60;;
30593;SDS011;33199;47.590;8.300;2023-04-24T07:35:23;2.28;;;1.38;;
30593;SDS011;33199;47.590;8.300;2023-04-24T07:37:51;1.35;;;0.63;;
30593;SDS011;33199;47.590;8.300;2023-04-24T07:40:17;1.05;;;0.60;;
30593;SDS011;33199;47.590;8.300;2023-04-24T07:42:43;1.30;;;0.65;;
30593;SDS011;33199;47.590;8.300;2023-04-24T07:45:09;1.55;;;0.90;;
30593;SDS011;33199;47.590;8.300;2023-04-24T07:47:35;0.93;;;0.80;;
30593;SDS011;33199;47.590;8.300;2023-04-24T07:50:02;0.65;;;0.65;;
30593;SDS011;33199;47.590;8.300;2023-04-24T07:52:28;3.30;;;0.90;;
30593;SDS011;33199;47.590;8.300;2023-04-24T07:54:54;1.10;;;0.70;;
30593;SDS011;33199;47.590;8.300;2023-04-24T07:57:23;0.68;;;0.60;;
30593;SDS011;33199;47.590;8.300;2023-04-24T07:59:50;0.65;;;0.65;;
30593;SDS011;33199;47.590;8.300;2023-04-24T08:02:15;1.23;;;0.77;;
30593;SDS011;33199;47.590;8.300;2023-04-24T08:04:41;0.80;;;0.80;;
30593;SDS011;33199;47.590;8.300;2023-04-24T08:07:07;2.03;;;0.80;;
30593;SDS011;33199;47.590;8.300;2023-04-24T08:09:33;0.80;;;0.80;;
30593;SDS011;33199;47.590;8.300;2023-04-24T08:11:58;0.85;;;0.85;;
30593;SDS011;33199;47.590;8.300;2023-04-24T08:14:24;0.85;;;0.63;;
30593;SDS011;33199;47.590;8.300;2023-04-24T08:16:50;0.80;;;0.70;;
30593;SDS011;33199;47.590;8.300;2023-04-24T08:19:15;1.05;;;0.68;;
30593;SDS011;33199;47.590;8.300;2023-04-24T08:21:41;0.60;;;0.60;;
30593;SDS011;33199;47.590;8.300;2023-04-24T08:24:06;0.82;;;0.70;;
30593;SDS011;33199;47.590;8.300;2023-04-24T08:26:33;0.70;;;0.70;;
30593;SDS011;33199;47.590;8.300;2023-04-24T08:28:59;0.70;;;0.70;;
30593;SDS011;33199;47.590;8.300;2023-04-24T08:31:24;6.35;;;0.90;;
30593;SDS011;33199;47.590;8.300;2023-04-24T08:33:51;0.82;;;0.73;;
30593;SDS011;33199;47.590;8.300;2023-04-24T08:36:16;0.50;;;0.50;;
30593;SDS011;33199;47.590;8.300;2023-04-24T08:38:42;0.60;;;0.60;;
30593;SDS011;33199;47.590;8.300;2023-04-24T08:41:08;0.65;;;0.65;;
30593;SDS011;33199;47.590;8.300;2023-04-24T08:43:35;0.73;;;0.73;;
30593;SDS011;33199;47.590;8.300;2023-04-24T08:46:03;1.05;;;0.80;;
30593;SDS011;33199;47.590;8.300;2023-04-24T08:48:29;0.82;;;0.82;;
30593;SDS011;33199;47.590;8.300;2023-04-24T08:50:56;1.65;;;1.08;;
30593;SDS011;33199;47.590;8.300;2023-04-24T08:53:22;0.73;;;0.73;;
30593;SDS011;33199;47.590;8.300;2023-04-24T08:55:51;0.80;;;0.77;;
30593;SDS011;33199;47.590;8.300;2023-04-24T08:58:18;1.05;;;0.70;;
30593;SDS011;33199;47.590;8.300;2023-04-24T09:00:44;1.25;;;0.80;;
30593;SDS011;33199;47.590;8.300;2023-04-24T09:03:11;0.98;;;0.85;;
30593;SDS011;33199;47.590;8.300;2023-04-24T09:05:46;0.55;;;0.55;;
30593;SDS011;33199;47.590;8.300;2023-04-24T09:08:12;1.13;;;0.95;;
30593;SDS011;33199;47.590;8.300;2023-04-24T09:10:39;0.90;;;0.90;;
30593;SDS011;33199;47.590;8.300;2023-04-24T09:13:05;1.58;;;0.70;;
30593;SDS011;33199;47.590;8.300;2023-04-24T09:15:34;0.85;;;0.85;;
30593;SDS011;33199;47.590;8.300;2023-04-24T09:18:00;1.10;;;0.90;;
30593;SDS011;33199;47.590;8.300;2023-04-24T09:20:26;1.40;;;1.05;;
30593;SDS011;33199;47.590;8.300;2023-04-24T09:22:56;2.00;;;0.73;;
30593;SDS011;33199;47.590;8.300;2023-04-24T09:25:22;1.42;;;0.80;;
30593;SDS011;33199;47.590;8.300;2023-04-24T09:28:02;0.63;;;0.63;;
30593;SDS011;33199;47.590;8.300;2023-04-24T09:30:29;0.70;;;0.70;;
30593;SDS011;33199;47.590;8.300;2023-04-24T09:33:15;1.48;;;0.80;;
30593;SDS011;33199;47.590;8.300;2023-04-24T09:35:41;0.82;;;0.82;;
30593;SDS011;33199;47.590;8.300;2023-04-24T09:38:10;0.65;;;0.60;;
30593;SDS011;33199;47.590;8.300;2023-04-24T09:40:36;1.05;;;0.70;;
30593;SDS011;33199;47.590;8.300;2023-04-24T09:43:02;1.48;;;0.50;;
30593;SDS011;33199;47.590;8.300;2023-04-24T09:45:37;0.90;;;0.80;;
30593;SDS011;33199;47.590;8.300;2023-04-24T09:48:04;1.02;;;0.90;;
30593;SDS011;33199;47.590;8.300;2023-04-24T09:50:31;0.70;;;0.70;;
30593;SDS011;33199;47.590;8.300;2023-04-24T09:52:58;2.25;;;0.80;;
30593;SDS011;33199;47.590;8.300;2023-04-24T09:55:26;0.95;;;0.60;;
30593;SDS011;33199;47.590;8.300;2023-04-24T10:00:32;0.70;;;0.70;;
30593;SDS011;33199;47.590;8.300;2023-04-24T10:03:00;2.05;;;0.70;;
30593;SDS011;33199;47.590;8.300;2023-04-24T10:05:34;0.85;;;0.80;;
30593;SDS011;33199;47.590;8.300;2023-04-24T10:08:02;1.38;;;0.85;;
30593;SDS011;33199;47.590;8.300;2023-04-24T10:10:33;0.82;;;0.80;;
30593;SDS011;33199;47.590;8.300;2023-04-24T10:13:10;0.80;;;0.80;;
30593;SDS011;33199;47.590;8.300;2023-04-24T10:15:37;2.50;;;0.90;;
30593;SDS011;33199;47.590;8.300;2023-04-24T10:18:06;0.65;;;0.65;;
30593;SDS011;33199;47.590;8.300;2023-04-24T10:20:34;2.72;;;0.82;;
30593;SDS011;33199;47.590;8.300;2023-04-24T10:23:01;2.70;;;0.90;;
30593;SDS011;33199;47.590;8.300;2023-04-24T10:25:28;0.80;;;0.80;;
30593;SDS011;33199;47.590;8.300;2023-04-24T10:27:56;1.38;;;0.73;;
30593;SDS011;33199;47.590;8.300;2023-04-24T10:32:51;2.75;;;0.80;;
30593;SDS011;33199;47.590;8.300;2023-04-24T10:35:17;0.93;;;0.88;;
30593;SDS011;33199;47.590;8.300;2023-04-24T10:37:52;0.88;;;0.88;;
30593;SDS011;33199;47.590;8.300;2023-04-24T10:40:39;1.42;;;0.90;;
30593;SDS011;33199;47.590;8.300;2023-04-24T10:43:06;0.63;;;0.63;;
30593;SDS011;33199;47.590;8.300;2023-04-24T10:45:36;0.65;;;0.65;;
30593;SDS011;33199;47.590;8.300;2023-04-24T10:48:07;2.45;;;0.90;;
30593;SDS011;33199;47.590;8.300;2023-04-24T10:50:45;2.28;;;0.60;;
30593;SDS011;33199;47.590;8.300;2023-04-24T10:53:16;0.75;;;0.75;;
30593;SDS011;33199;47.590;8.300;2023-04-24T10:55:47;0.88;;;0.88;;
30593;SDS011;33199;47.590;8.300;2023-04-24T10:58:35;0.75;;;0.75;;
30593;SDS011;33199;47.590;8.300;2023-04-24T11:01:22;0.70;;;0.70;;
30593;SDS011;33199;47.590;8.300;2023-04-24T11:03:50;2.45;;;0.73;;
30593;SDS011;33199;47.590;8.300;2023-04-24T11:06:28;0.70;;;0.70;;
30593;SDS011;33199;47.590;8.300;2023-04-24T11:09:05;0.77;;;0.77;;
30593;SDS011;33199;47.590;8.300;2023-04-24T11:11:37;0.73;;;0.73;;
30593;SDS011;33199;47.590;8.300;2023-04-24T11:14:06;1.15;;;0.80;;
30593;SDS011;33199;47.590;8.300;2023-04-24T11:19:08;0.70;;;0.70;;
30593;SDS011;33199;47.590;8.300;2023-04-24T11:21:43;1.60;;;0.70;;
30593;SDS011;33199;47.590;8.300;2023-04-24T11:26:48;0.70;;;0.70;;
30593;SDS011;33199;47.590;8.300;2023-04-24T11:29:15;0.82;;;0.77;;
30593;SDS011;33199;47.590;8.300;2023-04-24T11:31:44;0.80;;;0.80;;
30593;SDS011;33199;47.590;8.300;2023-04-24T11:34:15;0.63;;;0.63;;
30593;SDS011;33199;47.590;8.300;2023-04-24T11:36:45;0.70;;;0.57;;
30593;SDS011;33199;47.590;8.300;2023-04-24T11:39:12;0.75;;;0.70;;
30593;SDS011;33199;47.590;8.300;2023-04-24T11:41:39;2.05;;;1.00;;
30593;SDS011;33199;47.590;8.300;2023-04-24T11:44:06;1.35;;;0.98;;
30593;SDS011;33199;47.590;8.300;2023-04-24T11:48:59;0.75;;;0.75;;
30593;SDS011;33199;47.590;8.300;2023-04-24T11:51:25;1.13;;;0.70;;
30593;SDS011;33199;47.590;8.300;2023-04-24T11:53:52;1.10;;;0.80;;
30593;SDS011;33199;47.590;8.300;2023-04-24T11:56:19;0.82;;;0.80;;
30593;SDS011;33199;47.590;8.300;2023-04-24T11:58:46;1.48;;;0.80;;
30593;SDS011;33199;47.590;8.300;2023-04-24T12:01:12;0.90;;;0.90;;
30593;SDS011;33199;47.590;8.300;2023-04-24T12:03:37;0.60;;;0.60;;
30593;SDS011;33199;47.590;8.300;2023-04-24T12:06:06;1.05;;;0.80;;
30593;SDS011;33199;47.590;8.300;2023-04-24T12:08:35;1.25;;;0.85;;
30593;SDS011;33199;47.590;8.300;2023-04-24T12:11:02;1.73;;;0.80;;
30593;SDS011;33199;47.590;8.300;2023-04-24T12:13:29;2.20;;;0.88;;
30593;SDS011;33199;47.590;8.300;2023-04-24T12:15:59;2.03;;;0.90;;
30593;SDS011;33199;47.590;8.300;2023-04-24T12:18:26;0.90;;;0.90;;
30593;SDS011;33199;47.590;8.300;2023-04-24T12:20:52;1.00;;;0.80;;
30593;SDS011;33199;47.590;8.300;2023-04-24T12:23:36;2.80;;;1.02;;
30593;SDS011;33199;47.590;8.300;2023-04-24T12:26:05;0.85;;;0.70;;
30593;SDS011;33199;47.590;8.300;2023-04-24T12:28:37;0.80;;;0.80;;
30593;SDS011;33199;47.590;8.300;2023-04-24T12:31:05;0.80;;;0.80;;
30593;SDS011;33199;47.590;8.300;2023-04-24T12:33:32;0.70;;;0.70;;
30593;SDS011;33199;47.590;8.300;2023-04-24T12:36:00;0.95;;;0.70;;
30593;SDS011;33199;47.590;8.300;2023-04-24T12:38:26;1.33;;;0.80;;
30593;SDS011;33199;47.590;8.300;2023-04-24T12:43:52;3.67;;;1.20;;
30593;SDS011;33199;47.590;8.300;2023-04-24T12:46:19;0.85;;;0.85;;
30593;SDS011;33199;47.590;8.300;2023-04-24T12:48:44;0.85;;;0.85;;
30593;SDS011;33199;47.590;8.300;2023-04-24T12:51:10;1.10;;;0.93;;
30593;SDS011;33199;47.590;8.300;2023-04-24T12:53:35;0.70;;;0.70;;
30593;SDS011;33199;47.590;8.300;2023-04-24T12:56:01;0.90;;;0.90;;
30593;SDS011;33199;47.590;8.300;2023-04-24T12:58:27;0.82;;;0.80;;
30593;SDS011;33199;47.590;8.300;2023-04-24T13:00:52;0.85;;;0.85;;
30593;SDS011;33199;47.590;8.300;2023-04-24T13:03:18;1.15;;;0.80;;
30593;SDS011;33199;47.590;8.300;2023-04-24T13:05:44;0.82;;;0.70;;
30593;SDS011;33199;47.590;8.300;2023-04-24T13:08:10;0.80;;;0.80;;
30593;SDS011;33199;47.590;8.300;2023-04-24T13:10:36;1.77;;;0.90;;
30593;SDS011;33199;47.590;8.300;2023-04-24T13:13:01;0.90;;;0.90;;
30593;SDS011;33199;47.590;8.300;2023-04-24T13:15:28;0.80;;;0.80;;
30593;SDS011;33199;47.590;8.300;2023-04-24T13:17:54;1.02;;;0.95;;
30593;SDS011;33199;47.590;8.300;2023-04-24T13:20:20;0.80;;;0.80;;
30593;SDS011;33199;47.590;8.300;2023-04-24T13:22:45;0.68;;;0.68;;
30593;SDS011;33199;47.590;8.300;2023-04-24T13:25:11;1.00;;;1.00;;
30593;SDS011;33199;47.590;8.300;2023-04-24T13:27:39;2.42;;;0.98;;
30593;SDS011;33199;47.590;8.300;2023-04-24T13:30:05;1.30;;;0.80;;
30593;SDS011;33199;47.590;8.300;2023-04-24T13:32:32;1.23;;;1.13;;
30593;SDS011;33199;47.590;8.300;2023-04-24T13:34:58;1.00;;;0.90;;
30593;SDS011;33199;47.590;8.300;2023-04-24T13:37:24;3.08;;;0.93;;
30593;SDS011;33199;47.590;8.300;2023-04-24T13:39:49;5.55;;;1.08;;
30593;SDS011;33199;47.590;8.300;2023-04-24T13:42:15;0.95;;;0.95;;
30593;SDS011;33199;47.590;8.300;2023-04-24T13:44:41;0.85;;;0.70;;
30593;SDS011;33199;47.590;8.300;2023-04-24T13:47:06;1.50;;;0.90;;
30593;SDS011;33199;47.590;8.300;2023-04-24T13:49:32;1.10;;;1.10;;
30593;SDS011;33199;47.590;8.300;2023-04-24T13:51:58;0.85;;;0.85;;
30593;SDS011;33199;47.590;8.300;2023-04-24T13:54:23;2.33;;;0.75;;
30593;SDS011;33199;47.590;8.300;2023-04-24T13:56:51;1.35;;;1.00;;
30593;SDS011;33199;47.590;8.300;2023-04-24T13:59:17;1.60;;;0.90;;
30593;SDS011;33199;47.590;8.300;2023-04-24T14:01:43;0.80;;;0.80;;
30593;SDS011;33199;47.590;8.300;2023-04-24T14:04:10;0.98;;;0.90;;
30593;SDS011;33199;47.590;8.300;2023-04-24T14:06:35;0.80;;;0.80;;
30593;SDS011;33199;47.590;8.300;2023-04-24T14:09:01;0.80;;;0.80;;
30593;SDS011;33199;47.590;8.300;2023-04-24T14:11:27;0.93;;;0.90;;
30593;SDS011;33199;47.590;8.300;2023-04-24T14:13:53;0.70;;;0.70;;
30593;SDS011;33199;47.590;8.300;2023-04-24T14:16:21;0.88;;;0.88;;
30593;SDS011;33199;47.590;8.300;2023-04-24T14:18:47;3.45;;;1.20;;
30593;SDS011;33199;47.590;8.300;2023-04-24T14:21:12;1.23;;;1.00;;
30593;SDS011;33199;47.590;8.300;2023-04-24T14:23:38;1.10;;;1.00;;
30593;SDS011;33199;47.590;8.300;2023-04-24T14:26:03;1.10;;;0.80;;
30593;SDS011;33199;47.590;8.300;2023-04-24T14:28:29;1.40;;;1.30;;
30593;SDS011;33199;47.590;8.300;2023-04-24T14:30:55;0.73;;;0.73;;
30593;SDS011;33199;47.590;8.300;2023-04-24T14:33:20;0.80;;;0.80;;
30593;SDS011;33199;47.590;8.300;2023-04-24T14:35:46;0.90;;;0.90;;
30593;SDS011;33199;47.590;8.300;2023-04-24T14:38:12;0.73;;;0.73;;
30593;SDS011;33199;47.590;8.300;2023-04-24T14:40:38;1.00;;;1.00;;
30593;SDS011;33199;47.590;8.300;2023-04-24T14:43:03;1.00;;;0.90;;
30593;SDS011;33199;47.590;8.300;2023-04-24T14:45:29;0.90;;;0.90;;
30593;SDS011;33199;47.590;8.300;2023-04-24T14:47:55;1.88;;;1.02;;
30593;SDS011;33199;47.590;8.300;2023-04-24T14:50:21;0.90;;;0.90;;
30593;SDS011;33199;47.590;8.300;2023-04-24T14:52:47;1.15;;;1.05;;
30593;SDS011;33199;47.590;8.300;2023-04-24T14:55:13;1.00;;;0.98;;
30593;SDS011;33199;47.590;8.300;2023-04-24T14:57:39;0.90;;;0.90;;
30593;SDS011;33199;47.590;8.300;2023-04-24T15:00:05;0.80;;;0.80;;
30593;SDS011;33199;47.590;8.300;2023-04-24T15:04:59;1.02;;;0.85;;
30593;SDS011;33199;47.590;8.300;2023-04-24T15:07:24;1.05;;;0.98;;
30593;SDS011;33199;47.590;8.300;2023-04-24T15:09:50;0.90;;;0.90;;